Back to Top

Language: 

My Weather Underground Personal Weather Station Historical Data with Graphs...

Delerius Weather Station Historical Data
Daily Summary for March 2, 2017 Units:  Both    English   Metric
« Previous Day
Next Day »
Daily Weekly Monthly Yearly Custom
  High: Low: Average:
Temperature: 48.5 °F /  9.2 °C 36.0 °F /  2.2 °C 41.9 °F /  5.5 °C
Dew Point: 40.9 °F /  4.9 °C 31.4 °F /  -0.3 °C 35.9 °F /  2.2 °C
Humidity: 95 % 62 % 80 %
Wind Speed: 19.0 mph /  30.6 km/h - 9.8 mph /  15.8 km/h
Wind Gust: 27.0 mph /  43.5 km/h - -
Wind:- - West
Pressure: 29.78 in /  1008.4 hPa 29.34 in /  993.5 hPa -
Precipitation: 0.09 in /  2.29 mm    
Historical Graphs
 
 
Tabular Data for March 2, 2017
Time Temperature Dew Point Pressure Wind Wind Speed Wind Gust Humidity Rainfall Rate (Hourly) solar Conditions
00:00 38.7 °F /  3.7 °C 36.3 °F /  2.4 °C 29.34 in /  993.5 hPa West 9.0 mph /  14.5 km/h 9.0 mph /  14.5 km/h 91 % 0.00 in /  0 mm 0 W/m2
00:05 38.6 °F /  3.7 °C 35.9 °F /  2.2 °C 29.34 in /  993.5 hPa WNW 9.0 mph /  14.5 km/h 9.0 mph /  14.5 km/h 90 % 0.00 in /  0 mm 0 W/m2
00:15 38.5 °F /  3.6 °C 35.8 °F /  2.1 °C 29.35 in /  993.8 hPa West 6.0 mph /  9.7 km/h 7.0 mph /  11.3 km/h 90 % 0.00 in /  0 mm 0 W/m2
00:20 38.5 °F /  3.6 °C 35.8 °F /  2.1 °C 29.35 in /  993.8 hPa West 6.0 mph /  9.7 km/h 9.0 mph /  14.5 km/h 90 % 0.00 in /  0 mm 0 W/m2
00:25 38.4 °F /  3.6 °C 35.7 °F /  2.1 °C 29.35 in /  993.8 hPa WNW 8.0 mph /  12.9 km/h 9.0 mph /  14.5 km/h 90 % 0.00 in /  0 mm 0 W/m2
00:30 38.3 °F /  3.5 °C 35.6 °F /  2 °C 29.35 in /  993.8 hPa WNW 9.0 mph /  14.5 km/h 11.0 mph /  17.7 km/h 90 % 0.00 in /  0 mm 0 W/m2
00:35 38.2 °F /  3.4 °C 35.5 °F /  1.9 °C 29.35 in /  993.8 hPa WSW 8.0 mph /  12.9 km/h 11.0 mph /  17.7 km/h 90 % 0.00 in /  0 mm 0 W/m2
00:40 38.2 °F /  3.4 °C 35.5 °F /  1.9 °C 29.36 in /  994.1 hPa West 10.0 mph /  16.1 km/h 12.0 mph /  19.3 km/h 90 % 0.00 in /  0 mm 0 W/m2
00:50 38.1 °F /  3.4 °C 35.4 °F /  1.9 °C 29.36 in /  994.1 hPa West 9.0 mph /  14.5 km/h 12.0 mph /  19.3 km/h 90 % 0.00 in /  0 mm 0 W/m2
00:55 37.9 °F /  3.3 °C 35.2 °F /  1.8 °C 29.36 in /  994.1 hPa SW 9.0 mph /  14.5 km/h 12.0 mph /  19.3 km/h 90 % 0.00 in /  0 mm 0 W/m2
01:00 37.7 °F /  3.2 °C 35.3 °F /  1.8 °C 29.36 in /  994.1 hPa SW 10.0 mph /  16.1 km/h 10.0 mph /  16.1 km/h 91 % 0.00 in /  0 mm 0 W/m2
01:10 37.5 °F /  3.1 °C 35.1 °F /  1.7 °C 29.36 in /  994.1 hPa SW 8.0 mph /  12.9 km/h 16.0 mph /  25.7 km/h 91 % 0.00 in /  0 mm 0 W/m2
01:15 37.4 °F /  3 °C 35.0 °F /  1.7 °C 29.36 in /  994.1 hPa SW 9.0 mph /  14.5 km/h 16.0 mph /  25.7 km/h 91 % 0.00 in /  0 mm 0 W/m2
01:25 37.0 °F /  2.8 °C 34.6 °F /  1.4 °C 29.36 in /  994.1 hPa WSW 11.0 mph /  17.7 km/h 19.0 mph /  30.6 km/h 91 % 0.06 in /  1.52 mm 0 W/m2
01:30 36.8 °F /  2.7 °C 34.7 °F /  1.5 °C 29.36 in /  994.1 hPa WSW 12.0 mph /  19.3 km/h 16.0 mph /  25.7 km/h 92 % 0.06 in /  1.52 mm 0 W/m2
01:35 36.6 °F /  2.6 °C 34.5 °F /  1.4 °C 29.36 in /  994.1 hPa WSW 11.0 mph /  17.7 km/h 16.0 mph /  25.7 km/h 92 % 0.07 in /  1.78 mm 0 W/m2
01:40 36.5 °F /  2.5 °C 34.4 °F /  1.3 °C 29.36 in /  994.1 hPa West 11.0 mph /  17.7 km/h 16.0 mph /  25.7 km/h 92 % 0.07 in /  1.78 mm 0 W/m2
01:45 36.3 °F /  2.4 °C 34.5 °F /  1.4 °C 29.36 in /  994.1 hPa SW 11.0 mph /  17.7 km/h 16.0 mph /  25.7 km/h 93 % 0.14 in /  3.56 mm 0 W/m2
01:55 36.1 °F /  2.3 °C 34.3 °F /  1.3 °C 29.36 in /  994.1 hPa WSW 11.0 mph /  17.7 km/h 16.0 mph /  25.7 km/h 93 % 0.10 in /  2.54 mm 0 W/m2
02:00 36.0 °F /  2.2 °C 34.2 °F /  1.2 °C 29.36 in /  994.1 hPa WSW 12.0 mph /  19.3 km/h 12.0 mph /  19.3 km/h 93 % 0.07 in /  1.78 mm 0 W/m2
02:05 36.0 °F /  2.2 °C 34.2 °F /  1.2 °C 29.37 in /  994.5 hPa West 12.0 mph /  19.3 km/h 16.0 mph /  25.7 km/h 93 % 0.06 in /  1.52 mm 0 W/m2
02:10 36.1 °F /  2.3 °C 34.5 °F /  1.4 °C 29.37 in /  994.5 hPa West 11.0 mph /  17.7 km/h 11.0 mph /  17.7 km/h 94 % 0.06 in /  1.52 mm 0 W/m2
02:15 36.1 °F /  2.3 °C 34.5 °F /  1.4 °C 29.37 in /  994.5 hPa West 11.0 mph /  17.7 km/h 12.0 mph /  19.3 km/h 94 % 0.05 in /  1.27 mm 0 W/m2
02:20 36.3 °F /  2.4 °C 34.7 °F /  1.5 °C 29.38 in /  994.8 hPa WNW 11.0 mph /  17.7 km/h 16.0 mph /  25.7 km/h 94 % 0.09 in /  2.29 mm 0 W/m2
02:30 36.9 °F /  2.7 °C 35.3 °F /  1.8 °C 29.39 in /  995.1 hPa West 12.0 mph /  19.3 km/h 12.0 mph /  19.3 km/h 94 % 0.06 in /  1.52 mm 0 W/m2
02:40 37.0 °F /  2.8 °C 35.4 °F /  1.9 °C 29.39 in /  995.1 hPa West 11.0 mph /  17.7 km/h 16.0 mph /  25.7 km/h 94 % 0.04 in /  1.02 mm 0 W/m2
02:45 37.0 °F /  2.8 °C 35.4 °F /  1.9 °C 29.40 in /  995.5 hPa West 11.0 mph /  17.7 km/h 16.0 mph /  25.7 km/h 94 % 0.04 in /  1.02 mm 0 W/m2
02:50 36.9 °F /  2.7 °C 35.3 °F /  1.8 °C 29.40 in /  995.5 hPa West 10.0 mph /  16.1 km/h 16.0 mph /  25.7 km/h 94 % 0.04 in /  1.02 mm 0 W/m2
02:55 36.9 °F /  2.7 °C 35.3 °F /  1.8 °C 29.40 in /  995.5 hPa WNW 9.0 mph /  14.5 km/h 16.0 mph /  25.7 km/h 94 % 0.00 in /  0 mm 0 W/m2
03:05 36.8 °F /  2.7 °C 35.2 °F /  1.8 °C 29.40 in /  995.5 hPa West 8.0 mph /  12.9 km/h 16.0 mph /  25.7 km/h 94 % 0.00 in /  0 mm 0 W/m2
03:10 36.9 °F /  2.7 °C 35.3 °F /  1.8 °C 29.41 in /  995.8 hPa West 7.0 mph /  11.3 km/h 7.0 mph /  11.3 km/h 94 % 0.00 in /  0 mm 0 W/m2
03:15 36.9 °F /  2.7 °C 35.3 °F /  1.8 °C 29.41 in /  995.8 hPa West 4.0 mph /  6.4 km/h 16.0 mph /  25.7 km/h 94 % 0.00 in /  0 mm 0 W/m2
03:20 36.9 °F /  2.7 °C 35.3 °F /  1.8 °C 29.41 in /  995.8 hPa West 4.0 mph /  6.4 km/h 16.0 mph /  25.7 km/h 94 % 0.00 in /  0 mm 0 W/m2
03:30 37.2 °F /  2.9 °C 35.9 °F /  2.2 °C 29.40 in /  995.5 hPa West 6.0 mph /  9.7 km/h 16.0 mph /  25.7 km/h 95 % 0.00 in /  0 mm 0 W/m2
03:35 37.3 °F /  2.9 °C 35.7 °F /  2.1 °C 29.40 in /  995.5 hPa WNW 6.0 mph /  9.7 km/h 16.0 mph /  25.7 km/h 94 % 0.00 in /  0 mm 0 W/m2
03:45 37.4 °F /  3 °C 35.8 °F /  2.1 °C 29.41 in /  995.8 hPa West 7.0 mph /  11.3 km/h 8.0 mph /  12.9 km/h 94 % 0.00 in /  0 mm 0 W/m2
03:50 37.5 °F /  3.1 °C 35.9 °F /  2.2 °C 29.41 in /  995.8 hPa WNW 7.0 mph /  11.3 km/h 7.0 mph /  11.3 km/h 94 % 0.00 in /  0 mm 0 W/m2
03:55 37.6 °F /  3.1 °C 36.0 °F /  2.2 °C 29.41 in /  995.8 hPa West 7.0 mph /  11.3 km/h 8.0 mph /  12.9 km/h 94 % 0.00 in /  0 mm 0 W/m2
04:00 37.6 °F /  3.1 °C 36.0 °F /  2.2 °C 29.41 in /  995.8 hPa West 9.0 mph /  14.5 km/h 9.0 mph /  14.5 km/h 94 % 0.00 in /  0 mm 0 W/m2
04:10 37.7 °F /  3.2 °C 36.1 °F /  2.3 °C 29.41 in /  995.8 hPa WSW 10.0 mph /  16.1 km/h 18.0 mph /  29 km/h 94 % 0.00 in /  0 mm 0 W/m2
04:15 37.7 °F /  3.2 °C 36.1 °F /  2.3 °C 29.41 in /  995.8 hPa West 10.0 mph /  16.1 km/h 18.0 mph /  29 km/h 94 % 0.00 in /  0 mm 0 W/m2
04:20 37.7 °F /  3.2 °C 36.1 °F /  2.3 °C 29.41 in /  995.8 hPa West 10.0 mph /  16.1 km/h 16.0 mph /  25.7 km/h 94 % 0.00 in /  0 mm 0 W/m2
04:25 37.8 °F /  3.2 °C 36.2 °F /  2.3 °C 29.42 in /  996.2 hPa West 11.0 mph /  17.7 km/h 16.0 mph /  25.7 km/h 94 % 0.00 in /  0 mm 0 W/m2
04:30 38.0 °F /  3.3 °C 36.4 °F /  2.4 °C 29.42 in /  996.2 hPa WSW 11.0 mph /  17.7 km/h 11.0 mph /  17.7 km/h 94 % 0.00 in /  0 mm 0 W/m2
04:35 38.2 °F /  3.4 °C 36.4 °F /  2.4 °C 29.42 in /  996.2 hPa West 10.0 mph /  16.1 km/h 13.0 mph /  20.9 km/h 93 % 0.00 in /  0 mm 0 W/m2
04:45 38.5 °F /  3.6 °C 36.4 °F /  2.4 °C 29.42 in /  996.2 hPa WSW 12.0 mph /  19.3 km/h 12.0 mph /  19.3 km/h 92 % 0.00 in /  0 mm 0 W/m2
04:50 38.5 °F /  3.6 °C 36.4 °F /  2.4 °C 29.43 in /  996.5 hPa West 12.0 mph /  19.3 km/h 16.0 mph /  25.7 km/h 92 % 0.00 in /  0 mm 0 W/m2
04:55 38.5 °F /  3.6 °C 36.4 °F /  2.4 °C 29.43 in /  996.5 hPa West 12.0 mph /  19.3 km/h 16.0 mph /  25.7 km/h 92 % 0.00 in /  0 mm 0 W/m2
05:05 38.6 °F /  3.7 °C 36.2 °F /  2.3 °C 29.43 in /  996.5 hPa WSW 12.0 mph /  19.3 km/h 16.0 mph /  25.7 km/h 91 % 0.00 in /  0 mm 0 W/m2
05:10 38.7 °F /  3.7 °C 36.3 °F /  2.4 °C 29.43 in /  996.5 hPa WNW 11.0 mph /  17.7 km/h 16.0 mph /  25.7 km/h 91 % 0.00 in /  0 mm 0 W/m2
05:20 38.8 °F /  3.8 °C 36.4 °F /  2.4 °C 29.44 in /  996.8 hPa WSW 11.0 mph /  17.7 km/h 11.0 mph /  17.7 km/h 91 % 0.00 in /  0 mm 0 W/m2
05:25 38.9 °F /  3.8 °C 36.2 °F /  2.3 °C 29.44 in /  996.8 hPa West 11.0 mph /  17.7 km/h 16.0 mph /  25.7 km/h 90 % 0.00 in /  0 mm 0 W/m2
05:30 39.0 °F /  3.9 °C 36.3 °F /  2.4 °C 29.44 in /  996.8 hPa West 11.0 mph /  17.7 km/h 16.0 mph /  25.7 km/h 90 % 0.00 in /  0 mm 0 W/m2
05:35 39.0 °F /  3.9 °C 36.3 °F /  2.4 °C 29.45 in /  997.2 hPa WSW 12.0 mph /  19.3 km/h 16.0 mph /  25.7 km/h 90 % 0.00 in /  0 mm 0 W/m2
05:40 39.1 °F /  3.9 °C 36.4 °F /  2.4 °C 29.45 in /  997.2 hPa WSW 13.0 mph /  20.9 km/h 13.0 mph /  20.9 km/h 90 % 0.00 in /  0 mm 0 W/m2
05:50 39.1 °F /  3.9 °C 36.4 °F /  2.4 °C 29.45 in /  997.2 hPa SW 12.0 mph /  19.3 km/h 12.0 mph /  19.3 km/h 90 % 0.00 in /  0 mm 0 W/m2
05:55 39.1 °F /  3.9 °C 36.4 °F /  2.4 °C 29.45 in /  997.2 hPa WSW 11.0 mph /  17.7 km/h 13.0 mph /  20.9 km/h 90 % 0.00 in /  0 mm 0 W/m2
06:00 39.0 °F /  3.9 °C 36.3 °F /  2.4 °C 29.46 in /  997.5 hPa West 11.0 mph /  17.7 km/h 11.0 mph /  17.7 km/h 90 % 0.00 in /  0 mm 0 W/m2
06:05 39.0 °F /  3.9 °C 36.3 °F /  2.4 °C 29.46 in /  997.5 hPa WNW 10.0 mph /  16.1 km/h 16.0 mph /  25.7 km/h 90 % 0.00 in /  0 mm 0 W/m2
06:10 38.9 °F /  3.8 °C 36.5 °F /  2.5 °C 29.47 in /  997.9 hPa West 11.0 mph /  17.7 km/h 16.0 mph /  25.7 km/h 91 % 0.00 in /  0 mm 0 W/m2
06:15 38.9 °F /  3.8 °C 36.5 °F /  2.5 °C 29.47 in /  997.9 hPa NW 10.0 mph /  16.1 km/h 16.0 mph /  25.7 km/h 91 % 0.00 in /  0 mm 0 W/m2
06:25 38.7 °F /  3.7 °C 36.3 °F /  2.4 °C 29.48 in /  998.2 hPa SW 9.0 mph /  14.5 km/h 16.0 mph /  25.7 km/h 91 % 0.00 in /  0 mm 0 W/m2
06:30 38.5 °F /  3.6 °C 36.1 °F /  2.3 °C 29.48 in /  998.2 hPa WSW 8.0 mph /  12.9 km/h 16.0 mph /  25.7 km/h 91 % 0.00 in /  0 mm 0 W/m2
06:35 38.5 °F /  3.6 °C 36.1 °F /  2.3 °C 29.48 in /  998.2 hPa West 8.0 mph /  12.9 km/h 16.0 mph /  25.7 km/h 91 % 0.00 in /  0 mm 0 W/m2
06:45 38.3 °F /  3.5 °C 35.9 °F /  2.2 °C 29.48 in /  998.2 hPa West 7.0 mph /  11.3 km/h 16.0 mph /  25.7 km/h 91 % 0.00 in /  0 mm 0 W/m2
06:50 38.2 °F /  3.4 °C 35.8 °F /  2.1 °C 29.49 in /  998.5 hPa WNW 7.0 mph /  11.3 km/h 16.0 mph /  25.7 km/h 91 % 0.00 in /  0 mm 0 W/m2
07:00 38.1 °F /  3.4 °C 35.7 °F /  2.1 °C 29.49 in /  998.5 hPa West 8.0 mph /  12.9 km/h 8.0 mph /  12.9 km/h 91 % 0.00 in /  0 mm 11 W/m2
07:05 38.1 °F /  3.4 °C 36.0 °F /  2.2 °C 29.50 in /  998.9 hPa NW 9.0 mph /  14.5 km/h 9.0 mph /  14.5 km/h 92 % 0.00 in /  0 mm 14 W/m2
07:10 38.2 °F /  3.4 °C 36.1 °F /  2.3 °C 29.50 in /  998.9 hPa West 11.0 mph /  17.7 km/h 11.0 mph /  17.7 km/h 92 % 0.00 in /  0 mm 25 W/m2
07:15 38.3 °F /  3.5 °C 36.2 °F /  2.3 °C 29.50 in /  998.9 hPa WNW 12.0 mph /  19.3 km/h 12.0 mph /  19.3 km/h 92 % 0.00 in /  0 mm 21 W/m2
07:20 38.3 °F /  3.5 °C 36.2 °F /  2.3 °C 29.51 in /  999.2 hPa West 12.0 mph /  19.3 km/h 16.0 mph /  25.7 km/h 92 % 0.00 in /  0 mm 39 W/m2
07:30 38.5 °F /  3.6 °C 36.4 °F /  2.4 °C 29.52 in /  999.5 hPa West 13.0 mph /  20.9 km/h 13.0 mph /  20.9 km/h 92 % 0.00 in /  0 mm 28 W/m2
07:35 38.5 °F /  3.6 °C 36.4 °F /  2.4 °C 29.52 in /  999.5 hPa WNW 14.0 mph /  22.5 km/h 14.0 mph /  22.5 km/h 92 % 0.00 in /  0 mm 28 W/m2
07:40 38.5 °F /  3.6 °C 36.4 °F /  2.4 °C 29.53 in /  999.9 hPa WNW 14.0 mph /  22.5 km/h 14.0 mph /  22.5 km/h 92 % 0.00 in /  0 mm 28 W/m2
07:45 38.5 °F /  3.6 °C 36.1 °F /  2.3 °C 29.54 in /  1000.2 hPa West 14.0 mph /  22.5 km/h 16.0 mph /  25.7 km/h 91 % 0.00 in /  0 mm 32 W/m2
07:50 38.5 °F /  3.6 °C 36.4 °F /  2.4 °C 29.54 in /  1000.2 hPa WNW 12.0 mph /  19.3 km/h 16.0 mph /  25.7 km/h 92 % 0.00 in /  0 mm 39 W/m2
07:55 38.7 °F /  3.7 °C 36.6 °F /  2.6 °C 29.55 in /  1000.6 hPa WNW 11.0 mph /  17.7 km/h 16.0 mph /  25.7 km/h 92 % 0.00 in /  0 mm 42 W/m2
08:05 39.3 °F /  4.1 °C 37.4 °F /  3 °C 29.55 in /  1000.6 hPa West 12.0 mph /  19.3 km/h 16.0 mph /  25.7 km/h 93 % 0.00 in /  0 mm 183 W/m2
08:15 40.0 °F /  4.4 °C 38.1 °F /  3.4 °C 29.57 in /  1001.2 hPa WNW 10.0 mph /  16.1 km/h 16.0 mph /  25.7 km/h 93 % 0.00 in /  0 mm 93 W/m2
08:20 40.2 °F /  4.6 °C 38.1 °F /  3.4 °C 29.57 in /  1001.2 hPa WNW 9.0 mph /  14.5 km/h 20.0 mph /  32.2 km/h 92 % 0.00 in /  0 mm 84 W/m2
08:25 40.4 °F /  4.7 °C 38.3 °F /  3.5 °C 29.57 in /  1001.2 hPa West 12.0 mph /  19.3 km/h 20.0 mph /  32.2 km/h 92 % 0.00 in /  0 mm 98 W/m2
08:30 40.6 °F /  4.8 °C 38.5 °F /  3.6 °C 29.58 in /  1001.6 hPa West 12.0 mph /  19.3 km/h 12.0 mph /  19.3 km/h 92 % 0.00 in /  0 mm 56 W/m2
08:40 40.6 °F /  4.8 °C 38.2 °F /  3.4 °C 29.59 in /  1001.9 hPa West 11.0 mph /  17.7 km/h 11.0 mph /  17.7 km/h 91 % 0.00 in /  0 mm 44 W/m2
08:45 40.5 °F /  4.7 °C 37.8 °F /  3.2 °C 29.60 in /  1002.3 hPa West 12.0 mph /  19.3 km/h 12.0 mph /  19.3 km/h 90 % 0.00 in /  0 mm 51 W/m2
08:50 40.4 °F /  4.7 °C 37.7 °F /  3.2 °C 29.60 in /  1002.3 hPa WNW 13.0 mph /  20.9 km/h 13.0 mph /  20.9 km/h 90 % 0.00 in /  0 mm 100 W/m2
08:55 40.6 °F /  4.8 °C 37.9 °F /  3.3 °C 29.61 in /  1002.6 hPa West 14.0 mph /  22.5 km/h 14.0 mph /  22.5 km/h 90 % 0.00 in /  0 mm 100 W/m2
09:00 40.6 °F /  4.8 °C 37.6 °F /  3.1 °C 29.61 in /  1002.6 hPa West 15.0 mph /  24.1 km/h 15.0 mph /  24.1 km/h 89 % 0.00 in /  0 mm 91 W/m2
09:10 41.2 °F /  5.1 °C 38.2 °F /  3.4 °C 29.62 in /  1002.9 hPa WNW 13.0 mph /  20.9 km/h 13.0 mph /  20.9 km/h 89 % 0.00 in /  0 mm 311 W/m2
09:15 41.8 °F /  5.4 °C 38.5 °F /  3.6 °C 29.62 in /  1002.9 hPa WNW 12.0 mph /  19.3 km/h 16.0 mph /  25.7 km/h 88 % 0.00 in /  0 mm 327 W/m2
09:20 42.4 °F /  5.8 °C 38.8 °F /  3.8 °C 29.63 in /  1003.3 hPa WNW 12.0 mph /  19.3 km/h 12.0 mph /  19.3 km/h 87 % 0.00 in /  0 mm 332 W/m2
09:25 42.8 °F /  6 °C 38.9 °F /  3.8 °C 29.63 in /  1003.3 hPa West 13.0 mph /  20.9 km/h 14.0 mph /  22.5 km/h 86 % 0.00 in /  0 mm 336 W/m2
09:35 43.5 °F /  6.4 °C 39.3 °F /  4.1 °C 29.64 in /  1003.6 hPa NW 11.0 mph /  17.7 km/h 16.0 mph /  25.7 km/h 85 % 0.00 in /  0 mm 366 W/m2
09:40 43.8 °F /  6.6 °C 39.3 °F /  4.1 °C 29.65 in /  1003.9 hPa WNW 13.0 mph /  20.9 km/h 13.0 mph /  20.9 km/h 84 % 0.00 in /  0 mm 438 W/m2
09:50 44.3 °F /  6.8 °C 39.5 °F /  4.2 °C 29.66 in /  1004.3 hPa WNW 12.0 mph /  19.3 km/h 12.0 mph /  19.3 km/h 83 % 0.00 in /  0 mm 408 W/m2
09:55 44.6 °F /  7 °C 39.4 °F /  4.1 °C 29.66 in /  1004.3 hPa West 12.0 mph /  19.3 km/h 15.0 mph /  24.1 km/h 82 % 0.00 in /  0 mm 396 W/m2
10:00 44.8 °F /  7.1 °C 39.6 °F /  4.2 °C 29.66 in /  1004.3 hPa West 11.0 mph /  17.7 km/h 11.0 mph /  17.7 km/h 82 % 0.00 in /  0 mm 146 W/m2
10:05 44.6 °F /  7 °C 39.1 °F /  3.9 °C 29.66 in /  1004.3 hPa WNW 11.0 mph /  17.7 km/h 14.0 mph /  22.5 km/h 81 % 0.00 in /  0 mm 83 W/m2
10:10 44.1 °F /  6.7 °C 39.3 °F /  4.1 °C 29.67 in /  1004.6 hPa WNW 11.0 mph /  17.7 km/h 18.0 mph /  29 km/h 83 % 0.00 in /  0 mm 77 W/m2
10:20 42.4 °F /  5.8 °C 38.5 °F /  3.6 °C 29.67 in /  1004.6 hPa NW 10.0 mph /  16.1 km/h 10.0 mph /  16.1 km/h 86 % 0.00 in /  0 mm 100 W/m2
10:25 41.8 °F /  5.4 °C 38.5 °F /  3.6 °C 29.68 in /  1005 hPa NW 8.0 mph /  12.9 km/h 16.0 mph /  25.7 km/h 88 % 0.00 in /  0 mm 88 W/m2
10:30 41.6 °F /  5.3 °C 38.6 °F /  3.7 °C 29.68 in /  1005 hPa WNW 7.0 mph /  11.3 km/h 7.0 mph /  11.3 km/h 89 % 0.00 in /  0 mm 153 W/m2
10:35 41.9 °F /  5.5 °C 39.2 °F /  4 °C 29.68 in /  1005 hPa West 7.0 mph /  11.3 km/h 16.0 mph /  25.7 km/h 90 % 0.00 in /  0 mm 86 W/m2
10:40 42.1 °F /  5.6 °C 39.4 °F /  4.1 °C 29.68 in /  1005 hPa West 7.0 mph /  11.3 km/h 16.0 mph /  25.7 km/h 90 % 0.00 in /  0 mm 561 W/m2
10:50 43.6 °F /  6.4 °C 40.9 °F /  4.9 °C 29.68 in /  1005 hPa WNW 5.0 mph /  8 km/h 5.0 mph /  8 km/h 90 % 0.00 in /  0 mm 506 W/m2
10:55 44.2 °F /  6.8 °C 40.9 °F /  4.9 °C 29.68 in /  1005 hPa NW 6.0 mph /  9.7 km/h 8.0 mph /  12.9 km/h 88 % 0.00 in /  0 mm 599 W/m2
11:00 44.8 °F /  7.1 °C 40.6 °F /  4.8 °C 29.68 in /  1005 hPa NW 9.0 mph /  14.5 km/h 9.0 mph /  14.5 km/h 85 % 0.00 in /  0 mm 181 W/m2
11:05 45.3 °F /  7.4 °C 40.7 °F /  4.8 °C 29.68 in /  1005 hPa NNW 10.0 mph /  16.1 km/h 10.0 mph /  16.1 km/h 84 % 0.00 in /  0 mm 499 W/m2
11:15 46.0 °F /  7.8 °C 39.5 °F /  4.2 °C 29.68 in /  1005 hPa West 10.0 mph /  16.1 km/h 16.0 mph /  25.7 km/h 78 % 0.00 in /  0 mm 211 W/m2
11:25 45.5 °F /  7.5 °C 38.7 °F /  3.7 °C 29.70 in /  1005.6 hPa NW 13.0 mph /  20.9 km/h 16.0 mph /  25.7 km/h 77 % 0.00 in /  0 mm 130 W/m2
11:30 45.3 °F /  7.4 °C 38.5 °F /  3.6 °C 29.70 in /  1005.6 hPa NW 13.0 mph /  20.9 km/h 13.0 mph /  20.9 km/h 77 % 0.00 in /  0 mm 100 W/m2
11:35 45.5 °F /  7.5 °C 39.4 °F /  4.1 °C 29.70 in /  1005.6 hPa West 13.0 mph /  20.9 km/h 16.0 mph /  25.7 km/h 79 % 0.00 in /  0 mm 557 W/m2
11:40 45.8 °F /  7.7 °C 39.3 °F /  4.1 °C 29.70 in /  1005.6 hPa WNW 12.0 mph /  19.3 km/h 16.0 mph /  25.7 km/h 78 % 0.00 in /  0 mm 557 W/m2
11:45 46.2 °F /  7.9 °C 39.4 °F /  4.1 °C 29.70 in /  1005.6 hPa West 13.0 mph /  20.9 km/h 16.0 mph /  25.7 km/h 77 % 0.00 in /  0 mm 332 W/m2
11:50 46.4 °F /  8 °C 39.2 °F /  4 °C 29.70 in /  1005.6 hPa West 13.0 mph /  20.9 km/h 13.0 mph /  20.9 km/h 76 % 0.00 in /  0 mm 431 W/m2
12:00 46.6 °F /  8.1 °C 39.1 °F /  3.9 °C 29.71 in /  1006 hPa WNW 18.0 mph /  29 km/h 18.0 mph /  29 km/h 75 % 0.00 in /  0 mm 281 W/m2
12:05 46.8 °F /  8.2 °C 38.9 °F /  3.8 °C 29.71 in /  1006 hPa West 18.0 mph /  29 km/h 18.0 mph /  29 km/h 74 % 0.00 in /  0 mm 580 W/m2
12:10 46.9 °F /  8.3 °C 39.0 °F /  3.9 °C 29.71 in /  1006 hPa West 19.0 mph /  30.6 km/h 22.0 mph /  35.4 km/h 74 % 0.00 in /  0 mm 563 W/m2
12:15 47.2 °F /  8.4 °C 39.7 °F /  4.3 °C 29.71 in /  1006 hPa West 17.0 mph /  27.4 km/h 22.0 mph /  35.4 km/h 75 % 0.00 in /  0 mm 541 W/m2
12:20 47.4 °F /  8.6 °C 39.2 °F /  4 °C 29.71 in /  1006 hPa West 15.0 mph /  24.1 km/h 20.0 mph /  32.2 km/h 73 % 0.00 in /  0 mm 543 W/m2
12:30 47.0 °F /  8.3 °C 39.1 °F /  3.9 °C 29.71 in /  1006 hPa WNW 17.0 mph /  27.4 km/h 17.0 mph /  27.4 km/h 74 % 0.00 in /  0 mm 195 W/m2
12:35 46.7 °F /  8.2 °C 38.9 °F /  3.8 °C 29.71 in /  1006 hPa WSW 15.0 mph /  24.1 km/h 17.0 mph /  27.4 km/h 74 % 0.00 in /  0 mm 638 W/m2
12:45 47.1 °F /  8.4 °C 39.2 °F /  4 °C 29.72 in /  1006.3 hPa WSW 16.0 mph /  25.7 km/h 20.0 mph /  32.2 km/h 74 % 0.00 in /  0 mm 538 W/m2
12:50 47.1 °F /  8.4 °C 38.2 °F /  3.4 °C 29.71 in /  1006 hPa WNW 18.0 mph /  29 km/h 22.0 mph /  35.4 km/h 71 % 0.00 in /  0 mm 487 W/m2
12:55 47.4 °F /  8.6 °C 38.5 °F /  3.6 °C 29.71 in /  1006 hPa West 18.0 mph /  29 km/h 22.0 mph /  35.4 km/h 71 % 0.00 in /  0 mm 540 W/m2
13:00 47.6 °F /  8.7 °C 38.3 °F /  3.5 °C 29.72 in /  1006.3 hPa West 17.0 mph /  27.4 km/h 17.0 mph /  27.4 km/h 70 % 0.00 in /  0 mm 536 W/m2
13:05 47.7 °F /  8.7 °C 38.0 °F /  3.3 °C 29.71 in /  1006 hPa WNW 17.0 mph /  27.4 km/h 18.0 mph /  29 km/h 69 % 0.00 in /  0 mm 533 W/m2
13:10 47.9 °F /  8.8 °C 38.2 °F /  3.4 °C 29.71 in /  1006 hPa WNW 16.0 mph /  25.7 km/h 16.0 mph /  25.7 km/h 69 % 0.00 in /  0 mm 529 W/m2
13:15 48.0 °F /  8.9 °C 38.3 °F /  3.5 °C 29.71 in /  1006 hPa WSW 15.0 mph /  24.1 km/h 16.0 mph /  25.7 km/h 69 % 0.00 in /  0 mm 531 W/m2
13:20 48.1 °F /  8.9 °C 38.8 °F /  3.8 °C 29.72 in /  1006.3 hPa West 16.0 mph /  25.7 km/h 27.0 mph /  43.5 km/h 70 % 0.00 in /  0 mm 540 W/m2
13:25 47.2 °F /  8.4 °C 38.6 °F /  3.7 °C 29.71 in /  1006 hPa West 19.0 mph /  30.6 km/h 27.0 mph /  43.5 km/h 72 % 0.00 in /  0 mm 461 W/m2
13:30 46.9 °F /  8.3 °C 39.0 °F /  3.9 °C 29.71 in /  1006 hPa WNW 18.0 mph /  29 km/h 18.0 mph /  29 km/h 74 % 0.00 in /  0 mm 482 W/m2
13:40 47.5 °F /  8.6 °C 40.0 °F /  4.4 °C 29.71 in /  1006 hPa West 13.0 mph /  20.9 km/h 13.0 mph /  20.9 km/h 75 % 0.00 in /  0 mm 559 W/m2
13:45 47.5 °F /  8.6 °C 40.0 °F /  4.4 °C 29.71 in /  1006 hPa WNW 17.0 mph /  27.4 km/h 22.0 mph /  35.4 km/h 75 % 0.00 in /  0 mm 485 W/m2
13:50 47.4 °F /  8.6 °C 39.9 °F /  4.4 °C 29.71 in /  1006 hPa WNW 18.0 mph /  29 km/h 22.0 mph /  35.4 km/h 75 % 0.00 in /  0 mm 499 W/m2
14:00 47.7 °F /  8.7 °C 39.5 °F /  4.2 °C 29.71 in /  1006 hPa West 18.0 mph /  29 km/h 21.0 mph /  33.8 km/h 73 % 0.00 in /  0 mm 473 W/m2
14:05 47.8 °F /  8.8 °C 38.8 °F /  3.8 °C 29.71 in /  1006 hPa West 18.0 mph /  29 km/h 21.0 mph /  33.8 km/h 71 % 0.00 in /  0 mm 462 W/m2
14:15 48.2 °F /  9 °C 39.2 °F /  4 °C 29.71 in /  1006 hPa West 16.0 mph /  25.7 km/h 18.0 mph /  29 km/h 71 % 0.00 in /  0 mm 441 W/m2
14:20 48.1 °F /  8.9 °C 38.4 °F /  3.6 °C 29.71 in /  1006 hPa WNW 17.0 mph /  27.4 km/h 17.0 mph /  27.4 km/h 69 % 0.00 in /  0 mm 448 W/m2
14:25 48.1 °F /  8.9 °C 38.4 °F /  3.6 °C 29.72 in /  1006.3 hPa WNW 17.0 mph /  27.4 km/h 21.0 mph /  33.8 km/h 69 % 0.00 in /  0 mm 432 W/m2
14:30 48.2 °F /  9 °C 37.8 °F /  3.2 °C 29.72 in /  1006.3 hPa WNW 16.0 mph /  25.7 km/h 22.0 mph /  35.4 km/h 67 % 0.00 in /  0 mm 418 W/m2
14:35 48.4 °F /  9.1 °C 37.9 °F /  3.3 °C 29.72 in /  1006.3 hPa WNW 16.0 mph /  25.7 km/h 22.0 mph /  35.4 km/h 67 % 0.00 in /  0 mm 411 W/m2
14:45 48.4 °F /  9.1 °C 37.6 °F /  3.1 °C 29.72 in /  1006.3 hPa West 17.0 mph /  27.4 km/h 25.0 mph /  40.2 km/h 66 % 0.00 in /  0 mm 352 W/m2
14:50 48.5 °F /  9.2 °C 37.3 °F /  2.9 °C 29.73 in /  1006.7 hPa West 13.0 mph /  20.9 km/h 13.0 mph /  20.9 km/h 65 % 0.00 in /  0 mm 364 W/m2
14:55 48.5 °F /  9.2 °C 37.3 °F /  2.9 °C 29.73 in /  1006.7 hPa West 11.0 mph /  17.7 km/h 18.0 mph /  29 km/h 65 % 0.00 in /  0 mm 294 W/m2
15:00 48.5 °F /  9.2 °C 37.3 °F /  2.9 °C 29.73 in /  1006.7 hPa WNW 11.0 mph /  17.7 km/h 16.0 mph /  25.7 km/h 65 % 0.00 in /  0 mm 308 W/m2
15:05 48.4 °F /  9.1 °C 36.4 °F /  2.4 °C 29.73 in /  1006.7 hPa West 12.0 mph /  19.3 km/h 16.0 mph /  25.7 km/h 63 % 0.00 in /  0 mm 353 W/m2
15:10 48.4 °F /  9.1 °C 36.8 °F /  2.7 °C 29.74 in /  1007 hPa West 12.0 mph /  19.3 km/h 16.0 mph /  25.7 km/h 64 % 0.00 in /  0 mm 330 W/m2
15:20 48.2 °F /  9 °C 36.6 °F /  2.6 °C 29.74 in /  1007 hPa West 12.0 mph /  19.3 km/h 16.0 mph /  25.7 km/h 64 % 0.00 in /  0 mm 250 W/m2
15:25 48.0 °F /  8.9 °C 36.8 °F /  2.7 °C 29.74 in /  1007 hPa SW 13.0 mph /  20.9 km/h 16.0 mph /  25.7 km/h 65 % 0.00 in /  0 mm 269 W/m2
15:35 47.9 °F /  8.8 °C 36.3 °F /  2.4 °C 29.75 in /  1007.3 hPa WNW 10.0 mph /  16.1 km/h 16.0 mph /  25.7 km/h 64 % 0.00 in /  0 mm 230 W/m2
15:40 48.0 °F /  8.9 °C 36.4 °F /  2.4 °C 29.75 in /  1007.3 hPa WNW 8.0 mph /  12.9 km/h 8.0 mph /  12.9 km/h 64 % 0.00 in /  0 mm 244 W/m2
15:45 47.9 °F /  8.8 °C 35.9 °F /  2.2 °C 29.75 in /  1007.3 hPa WSW 8.0 mph /  12.9 km/h 16.0 mph /  25.7 km/h 63 % 0.00 in /  0 mm 206 W/m2
15:55 47.1 °F /  8.4 °C 35.5 °F /  1.9 °C 29.75 in /  1007.3 hPa WSW 9.0 mph /  14.5 km/h 16.0 mph /  25.7 km/h 64 % 0.00 in /  0 mm 176 W/m2
16:00 47.0 °F /  8.3 °C 35.8 °F /  2.1 °C 29.75 in /  1007.3 hPa West 7.0 mph /  11.3 km/h 7.0 mph /  11.3 km/h 65 % 0.00 in /  0 mm 151 W/m2
16:05 46.8 °F /  8.2 °C 35.6 °F /  2 °C 29.75 in /  1007.3 hPa SW 6.0 mph /  9.7 km/h 16.0 mph /  25.7 km/h 65 % 0.00 in /  0 mm 79 W/m2
16:10 46.6 °F /  8.1 °C 35.8 °F /  2.1 °C 29.75 in /  1007.3 hPa WSW 5.0 mph /  8 km/h 16.0 mph /  25.7 km/h 66 % 0.00 in /  0 mm 46 W/m2
16:15 46.3 °F /  7.9 °C 35.6 °F /  2 °C 29.75 in /  1007.3 hPa West 6.0 mph /  9.7 km/h 16.0 mph /  25.7 km/h 66 % 0.00 in /  0 mm 44 W/m2
16:25 45.9 °F /  7.7 °C 35.6 °F /  2 °C 29.75 in /  1007.3 hPa SW 8.0 mph /  12.9 km/h 11.0 mph /  17.7 km/h 67 % 0.00 in /  0 mm 63 W/m2
16:30 45.7 °F /  7.6 °C 35.4 °F /  1.9 °C 29.75 in /  1007.3 hPa WSW 9.0 mph /  14.5 km/h 9.0 mph /  14.5 km/h 67 % 0.00 in /  0 mm 62 W/m2
16:35 45.6 °F /  7.6 °C 35.3 °F /  1.8 °C 29.75 in /  1007.3 hPa SW 10.0 mph /  16.1 km/h 10.0 mph /  16.1 km/h 67 % 0.00 in /  0 mm 65 W/m2
16:40 45.5 °F /  7.5 °C 35.2 °F /  1.8 °C 29.75 in /  1007.3 hPa SW 10.0 mph /  16.1 km/h 16.0 mph /  25.7 km/h 67 % 0.00 in /  0 mm 70 W/m2
16:45 45.4 °F /  7.4 °C 34.7 °F /  1.5 °C 29.75 in /  1007.3 hPa SW 11.0 mph /  17.7 km/h 16.0 mph /  25.7 km/h 66 % 0.00 in /  0 mm 70 W/m2
16:50 45.4 °F /  7.4 °C 34.3 °F /  1.3 °C 29.75 in /  1007.3 hPa SW 11.0 mph /  17.7 km/h 11.0 mph /  17.7 km/h 65 % 0.00 in /  0 mm 46 W/m2
17:00 45.1 °F /  7.3 °C 33.6 °F /  0.9 °C 29.75 in /  1007.3 hPa WSW 9.0 mph /  14.5 km/h 16.0 mph /  25.7 km/h 64 % 0.00 in /  0 mm 19 W/m2
17:10 44.7 °F /  7.1 °C 32.5 °F /  0.3 °C 29.75 in /  1007.3 hPa West 13.0 mph /  20.9 km/h 16.0 mph /  25.7 km/h 62 % 0.00 in /  0 mm 14 W/m2
17:15 44.6 °F /  7 °C 32.8 °F /  0.4 °C 29.76 in /  1007.7 hPa West 12.0 mph /  19.3 km/h 16.0 mph /  25.7 km/h 63 % 0.00 in /  0 mm 12 W/m2
17:20 44.4 °F /  6.9 °C 32.6 °F /  0.3 °C 29.76 in /  1007.7 hPa WSW 10.0 mph /  16.1 km/h 16.0 mph /  25.7 km/h 63 % 0.00 in /  0 mm 11 W/m2
17:25 44.3 °F /  6.8 °C 32.5 °F /  0.3 °C 29.76 in /  1007.7 hPa West 11.0 mph /  17.7 km/h 20.0 mph /  32.2 km/h 63 % 0.00 in /  0 mm 9 W/m2
17:35 44.1 °F /  6.7 °C 32.7 °F /  0.4 °C 29.76 in /  1007.7 hPa WSW 11.0 mph /  17.7 km/h 16.0 mph /  25.7 km/h 64 % 0.00 in /  0 mm 7 W/m2
17:40 43.9 °F /  6.6 °C 32.5 °F /  0.3 °C 29.77 in /  1008 hPa West 11.0 mph /  17.7 km/h 11.0 mph /  17.7 km/h 64 % 0.00 in /  0 mm 5 W/m2
17:45 43.8 °F /  6.6 °C 32.8 °F /  0.4 °C 29.76 in /  1007.7 hPa WSW 12.0 mph /  19.3 km/h 12.0 mph /  19.3 km/h 65 % 0.00 in /  0 mm 0 W/m2
17:50 43.6 °F /  6.4 °C 33.0 °F /  0.6 °C 29.76 in /  1007.7 hPa West 11.0 mph /  17.7 km/h 11.0 mph /  17.7 km/h 66 % 0.00 in /  0 mm 0 W/m2
17:55 43.4 °F /  6.3 °C 32.8 °F /  0.4 °C 29.76 in /  1007.7 hPa WSW 9.0 mph /  14.5 km/h 16.0 mph /  25.7 km/h 66 % 0.00 in /  0 mm 0 W/m2
18:00 43.4 °F /  6.3 °C 33.2 °F /  0.7 °C 29.76 in /  1007.7 hPa WSW 9.0 mph /  14.5 km/h 9.0 mph /  14.5 km/h 67 % 0.00 in /  0 mm 0 W/m2
18:05 43.2 °F /  6.2 °C 33.0 °F /  0.6 °C 29.76 in /  1007.7 hPa WSW 8.0 mph /  12.9 km/h 16.0 mph /  25.7 km/h 67 % 0.00 in /  0 mm 0 W/m2
18:10 43.2 °F /  6.2 °C 33.3 °F /  0.7 °C 29.77 in /  1008 hPa West 7.0 mph /  11.3 km/h 16.0 mph /  25.7 km/h 68 % 0.00 in /  0 mm 0 W/m2
18:15 43.1 °F /  6.2 °C 33.3 °F /  0.7 °C 29.77 in /  1008 hPa WSW 7.0 mph /  11.3 km/h 16.0 mph /  25.7 km/h 68 % 0.00 in /  0 mm 0 W/m2
18:20 43.0 °F /  6.1 °C 33.2 °F /  0.7 °C 29.77 in /  1008 hPa WSW 7.0 mph /  11.3 km/h 7.0 mph /  11.3 km/h 68 % 0.00 in /  0 mm 0 W/m2
18:25 43.0 °F /  6.1 °C 33.5 °F /  0.8 °C 29.78 in /  1008.4 hPa SW 6.0 mph /  9.7 km/h 13.0 mph /  20.9 km/h 69 % 0.00 in /  0 mm 0 W/m2
18:30 42.9 °F /  6.1 °C 33.1 °F /  0.6 °C 29.78 in /  1008.4 hPa SW 8.0 mph /  12.9 km/h 8.0 mph /  12.9 km/h 68 % 0.00 in /  0 mm 0 W/m2
18:40 42.9 °F /  6.1 °C 33.1 °F /  0.6 °C 29.77 in /  1008 hPa WSW 8.0 mph /  12.9 km/h 16.0 mph /  25.7 km/h 68 % 0.00 in /  0 mm 0 W/m2
18:45 42.8 °F /  6 °C 32.6 °F /  0.3 °C 29.77 in /  1008 hPa WSW 8.0 mph /  12.9 km/h 16.0 mph /  25.7 km/h 67 % 0.00 in /  0 mm 0 W/m2
18:55 42.6 °F /  5.9 °C 32.4 °F /  0.2 °C 29.77 in /  1008 hPa SW 8.0 mph /  12.9 km/h 16.0 mph /  25.7 km/h 67 % 0.00 in /  0 mm 0 W/m2
19:00 42.6 °F /  5.9 °C 32.4 °F /  0.2 °C 29.77 in /  1008 hPa WSW 8.0 mph /  12.9 km/h 8.0 mph /  12.9 km/h 67 % 0.00 in /  0 mm 0 W/m2
19:05 42.6 °F /  5.9 °C 32.4 °F /  0.2 °C 29.77 in /  1008 hPa WSW 8.0 mph /  12.9 km/h 16.0 mph /  25.7 km/h 67 % 0.00 in /  0 mm 0 W/m2
19:15 42.4 °F /  5.8 °C 32.2 °F /  0.1 °C 29.77 in /  1008 hPa SW 8.0 mph /  12.9 km/h 16.0 mph /  25.7 km/h 67 % 0.00 in /  0 mm 0 W/m2
19:20 42.3 °F /  5.7 °C 32.1 °F /  0.1 °C 29.76 in /  1007.7 hPa SW 7.0 mph /  11.3 km/h 7.0 mph /  11.3 km/h 67 % 0.00 in /  0 mm 0 W/m2
19:25 42.3 °F /  5.7 °C 32.1 °F /  0.1 °C 29.76 in /  1007.7 hPa SW 6.0 mph /  9.7 km/h 16.0 mph /  25.7 km/h 67 % 0.00 in /  0 mm 0 W/m2
19:30 42.2 °F /  5.7 °C 31.6 °F /  -0.2 °C 29.76 in /  1007.7 hPa SW 6.0 mph /  9.7 km/h 6.0 mph /  9.7 km/h 66 % 0.00 in /  0 mm 0 W/m2
19:35 42.1 °F /  5.6 °C 31.6 °F /  -0.2 °C 29.76 in /  1007.7 hPa SSW 5.0 mph /  8 km/h 16.0 mph /  25.7 km/h 66 % 0.00 in /  0 mm 0 W/m2
19:45 41.7 °F /  5.4 °C 31.5 °F /  -0.3 °C 29.76 in /  1007.7 hPa SSW 2.0 mph /  3.2 km/h 16.0 mph /  25.7 km/h 67 % 0.00 in /  0 mm 0 W/m2
19:50 41.6 °F /  5.3 °C 31.4 °F /  -0.3 °C 29.76 in /  1007.7 hPa SSW 1.0 mph /  1.6 km/h 16.0 mph /  25.7 km/h 67 % 0.00 in /  0 mm 0 W/m2
19:55 41.3 °F /  5.2 °C 31.5 °F /  -0.3 °C 29.76 in /  1007.7 hPa Calm   16.0 mph /  25.7 km/h 68 % 0.00 in /  0 mm 0 W/m2
20:00 41.0 °F /  5 °C 31.6 °F /  -0.2 °C 29.76 in /  1007.7 hPa Calm   16.0 mph /  25.7 km/h 69 % 0.00 in /  0 mm 0 W/m2
20:10 40.4 °F /  4.7 °C 31.7 °F /  -0.2 °C 29.76 in /  1007.7 hPa SSW 1.0 mph /  1.6 km/h 1.0 mph /  1.6 km/h 71 % 0.00 in /  0 mm 0 W/m2
20:20 40.0 °F /  4.4 °C 31.7 °F /  -0.2 °C 29.75 in /  1007.3 hPa Calm   16.0 mph /  25.7 km/h 72 % 0.00 in /  0 mm 0 W/m2
20:25 39.7 °F /  4.3 °C 31.4 °F /  -0.3 °C 29.75 in /  1007.3 hPa Calm   16.0 mph /  25.7 km/h 72 % 0.00 in /  0 mm 0 W/m2
20:30 39.4 °F /  4.1 °C 31.5 °F /  -0.3 °C 29.75 in /  1007.3 hPa Calm   16.0 mph /  25.7 km/h 73 % 0.00 in /  0 mm 0 W/m2
20:35 39.3 °F /  4.1 °C 31.7 °F /  -0.2 °C 29.75 in /  1007.3 hPa SSE 1.0 mph /  1.6 km/h 16.0 mph /  25.7 km/h 74 % 0.00 in /  0 mm 0 W/m2
20:40 39.2 °F /  4 °C 31.6 °F /  -0.2 °C 29.75 in /  1007.3 hPa SSE 1.0 mph /  1.6 km/h 1.0 mph /  1.6 km/h 74 % 0.00 in /  0 mm 0 W/m2
20:45 39.1 °F /  3.9 °C 31.8 °F /  -0.1 °C 29.75 in /  1007.3 hPa Calm   16.0 mph /  25.7 km/h 75 % 0.00 in /  0 mm 0 W/m2
20:55 39.0 °F /  3.9 °C 31.7 °F /  -0.2 °C 29.75 in /  1007.3 hPa Calm   16.0 mph /  25.7 km/h 75 % 0.00 in /  0 mm 0 W/m2
21:05 39.2 °F /  4 °C 31.9 °F /  -0.1 °C 29.74 in /  1007 hPa SSW 2.0 mph /  3.2 km/h 16.0 mph /  25.7 km/h 75 % 0.00 in /  0 mm 0 W/m2
21:10 39.5 °F /  4.2 °C 32.2 °F /  0.1 °C 29.74 in /  1007 hPa SSW 3.0 mph /  4.8 km/h 16.0 mph /  25.7 km/h 75 % 0.00 in /  0 mm 0 W/m2
21:15 39.7 °F /  4.3 °C 32.1 °F /  0.1 °C 29.74 in /  1007 hPa SSW 3.0 mph /  4.8 km/h 16.0 mph /  25.7 km/h 74 % 0.00 in /  0 mm 0 W/m2
21:20 40.0 °F /  4.4 °C 32.4 °F /  0.2 °C 29.74 in /  1007 hPa South 4.0 mph /  6.4 km/h 16.0 mph /  25.7 km/h 74 % 0.00 in /  0 mm 0 W/m2
21:30 40.6 °F /  4.8 °C 32.6 °F /  0.3 °C 29.74 in /  1007 hPa SSW 4.0 mph /  6.4 km/h 4.0 mph /  6.4 km/h 73 % 0.00 in /  0 mm 0 W/m2
21:35 40.7 °F /  4.8 °C 32.4 °F /  0.2 °C 29.74 in /  1007 hPa SW 4.0 mph /  6.4 km/h 16.0 mph /  25.7 km/h 72 % 0.00 in /  0 mm 0 W/m2
21:40 40.9 °F /  4.9 °C 32.6 °F /  0.3 °C 29.74 in /  1007 hPa South 5.0 mph /  8 km/h 5.0 mph /  8 km/h 72 % 0.00 in /  0 mm 0 W/m2
21:45 40.9 °F /  4.9 °C 32.6 °F /  0.3 °C 29.74 in /  1007 hPa SSW 4.0 mph /  6.4 km/h 16.0 mph /  25.7 km/h 72 % 0.00 in /  0 mm 0 W/m2
21:50 40.9 °F /  4.9 °C 32.6 °F /  0.3 °C 29.74 in /  1007 hPa SSW 4.0 mph /  6.4 km/h 16.0 mph /  25.7 km/h 72 % 0.00 in /  0 mm 0 W/m2
22:00 41.0 °F /  5 °C 32.7 °F /  0.4 °C 29.73 in /  1006.7 hPa SSW 5.0 mph /  8 km/h 5.0 mph /  8 km/h 72 % 0.00 in /  0 mm 0 W/m2
22:05 40.9 °F /  4.9 °C 32.6 °F /  0.3 °C 29.73 in /  1006.7 hPa South 5.0 mph /  8 km/h 16.0 mph /  25.7 km/h 72 % 0.00 in /  0 mm 0 W/m2
22:10 41.1 °F /  5.1 °C 32.8 °F /  0.4 °C 29.73 in /  1006.7 hPa SSW 6.0 mph /  9.7 km/h 6.0 mph /  9.7 km/h 72 % 0.00 in /  0 mm 0 W/m2
22:15 41.2 °F /  5.1 °C 33.2 °F /  0.7 °C 29.73 in /  1006.7 hPa SW 6.0 mph /  9.7 km/h 9.0 mph /  14.5 km/h 73 % 0.00 in /  0 mm 0 W/m2
22:20 41.4 °F /  5.2 °C 33.4 °F /  0.8 °C 29.73 in /  1006.7 hPa SW 7.0 mph /  11.3 km/h 7.0 mph /  11.3 km/h 73 % 0.00 in /  0 mm 0 W/m2
22:30 41.8 °F /  5.4 °C 34.1 °F /  1.2 °C 29.73 in /  1006.7 hPa South 9.0 mph /  14.5 km/h 9.0 mph /  14.5 km/h 74 % 0.00 in /  0 mm 0 W/m2
22:35 42.1 °F /  5.6 °C 34.7 °F /  1.5 °C 29.72 in /  1006.3 hPa SSW 9.0 mph /  14.5 km/h 16.0 mph /  25.7 km/h 75 % 0.00 in /  0 mm 0 W/m2
22:45 42.5 °F /  5.8 °C 35.1 °F /  1.7 °C 29.71 in /  1006 hPa SW 8.0 mph /  12.9 km/h 16.0 mph /  25.7 km/h 75 % 0.00 in /  0 mm 0 W/m2
22:50 42.4 °F /  5.8 °C 35.0 °F /  1.7 °C 29.71 in /  1006 hPa SW 8.0 mph /  12.9 km/h 16.0 mph /  25.7 km/h 75 % 0.00 in /  0 mm 0 W/m2
22:55 42.4 °F /  5.8 °C 35.4 °F /  1.9 °C 29.71 in /  1006 hPa SW 8.0 mph /  12.9 km/h 16.0 mph /  25.7 km/h 76 % 0.00 in /  0 mm 0 W/m2
23:00 42.3 °F /  5.7 °C 35.3 °F /  1.8 °C 29.71 in /  1006 hPa SW 8.0 mph /  12.9 km/h 16.0 mph /  25.7 km/h 76 % 0.00 in /  0 mm 0 W/m2
23:10 42.1 °F /  5.6 °C 35.4 °F /  1.9 °C 29.70 in /  1005.6 hPa SW 8.0 mph /  12.9 km/h 16.0 mph /  25.7 km/h 77 % 0.00 in /  0 mm 0 W/m2
23:15 42.3 °F /  5.7 °C 35.9 °F /  2.2 °C 29.70 in /  1005.6 hPa SW 8.0 mph /  12.9 km/h 16.0 mph /  25.7 km/h 78 % 0.00 in /  0 mm 0 W/m2
23:20 42.2 °F /  5.7 °C 35.8 °F /  2.1 °C 29.71 in /  1006 hPa SSW 7.0 mph /  11.3 km/h 16.0 mph /  25.7 km/h 78 % 0.00 in /  0 mm 0 W/m2
23:25 42.1 °F /  5.6 °C 36.1 °F /  2.3 °C 29.71 in /  1006 hPa SSW 6.0 mph /  9.7 km/h 16.0 mph /  25.7 km/h 79 % 0.00 in /  0 mm 0 W/m2
23:30 42.1 °F /  5.6 °C 36.1 °F /  2.3 °C 29.71 in /  1006 hPa SW 7.0 mph /  11.3 km/h 16.0 mph /  25.7 km/h 79 % 0.00 in /  0 mm 0 W/m2
23:35 42.3 °F /  5.7 °C 36.6 °F /  2.6 °C 29.71 in /  1006 hPa SSW 9.0 mph /  14.5 km/h 16.0 mph /  25.7 km/h 80 % 0.00 in /  0 mm 0 W/m2
23:45 42.5 °F /  5.8 °C 36.8 °F /  2.7 °C 29.71 in /  1006 hPa SW 9.0 mph /  14.5 km/h 16.0 mph /  25.7 km/h 80 % 0.00 in /  0 mm 0 W/m2
23:50 42.4 °F /  5.8 °C 36.7 °F /  2.6 °C 29.71 in /  1006 hPa SSW 8.0 mph /  12.9 km/h 16.0 mph /  25.7 km/h 80 % 0.00 in /  0 mm 0 W/m2
23:55 42.4 °F /  5.8 °C 37.0 °F /  2.8 °C 29.70 in /  1005.6 hPa SW 8.0 mph /  12.9 km/h 16.0 mph /  25.7 km/h 81 % 0.00 in /  0 mm 0 W/m2
Delerius-Weather
Compliments of Weather Underground - 2 mb

Data updates at regular intervals.